createdAt,value
2018-04-28T00:01:31.479Z,56.60
2018-04-28T00:04:00.498Z,56.30
2018-04-28T00:06:30.271Z,56.60
2018-04-28T00:08:59.319Z,57.10
2018-04-28T00:11:28.327Z,57.00
2018-04-28T00:13:57.340Z,56.70
2018-04-28T00:16:27.070Z,56.40
2018-04-28T00:19:12.676Z,56.20
2018-04-28T00:21:57.596Z,56.20
2018-04-28T00:27:27.172Z,56.80
2018-04-28T00:29:59.219Z,57.20
2018-04-28T00:32:28.241Z,57.30
2018-04-28T00:37:52.088Z,57.50
2018-04-28T00:43:29.407Z,58.80
2018-04-28T00:46:03.718Z,58.80
2018-04-28T00:48:39.390Z,58.30
2018-04-28T00:51:10.817Z,58.40
2018-04-28T00:53:40.008Z,58.50
2018-04-28T00:56:09.009Z,59.20
2018-04-28T00:58:44.017Z,59.30
2018-04-28T01:01:16.546Z,59.60
2018-04-28T01:06:58.531Z,60.40
2018-04-28T01:09:27.564Z,59.70
2018-04-28T01:11:56.568Z,59.90
2018-04-28T01:14:34.131Z,59.50
2018-04-28T01:17:03.912Z,60.20
2018-04-28T01:19:37.435Z,60.10
2018-04-28T01:22:06.436Z,60.10
2018-04-28T01:24:49.755Z,60.60
2018-04-28T01:27:26.431Z,60.50
2018-04-28T01:33:26.879Z,60.40
2018-04-28T01:36:04.343Z,62.00
2018-04-28T01:38:34.200Z,61.20
2018-04-28T01:44:16.457Z,61.60
2018-04-28T01:46:55.682Z,60.70
2018-04-28T01:52:23.055Z,61.90
2018-04-28T01:55:07.749Z,61.90
2018-04-28T01:57:43.680Z,61.70
2018-04-28T02:00:12.462Z,62.00
2018-04-28T02:02:43.446Z,61.70
2018-04-28T02:05:17.075Z,61.10
2018-04-28T02:07:47.054Z,61.60
2018-04-28T02:13:21.702Z,62.30
2018-04-28T02:15:50.731Z,62.10
2018-04-28T02:18:38.382Z,62.40
2018-04-28T02:24:17.863Z,62.80
2018-04-28T02:26:48.963Z,62.70
2018-04-28T02:29:32.435Z,62.10
2018-04-28T02:32:12.119Z,62.70
2018-04-28T02:34:41.956Z,63.40
2018-04-28T02:37:12.961Z,63.30
2018-04-28T02:39:43.747Z,63.40
2018-04-28T02:45:30.563Z,63.40
2018-04-28T02:48:18.275Z,63.20
2018-04-28T02:51:10.627Z,63.90
2018-04-28T02:53:44.074Z,63.50
2018-04-28T02:56:33.775Z,63.70
2018-04-28T03:02:35.644Z,64.90
2018-04-28T03:05:20.305Z,64.80
2018-04-28T03:10:49.463Z,65.10
2018-04-28T03:13:20.083Z,64.60
2018-04-28T03:15:50.638Z,65.00
2018-04-28T03:18:19.654Z,65.00
2018-04-28T03:20:48.682Z,64.30
2018-04-28T03:23:23.418Z,64.40
2018-04-28T03:26:06.030Z,64.80
2018-04-28T03:28:39.531Z,64.30
2018-04-28T03:31:12.962Z,63.80
2018-04-28T03:33:42.810Z,63.70
2018-04-28T03:36:25.652Z,63.10
2018-04-28T03:39:10.235Z,63.50
2018-04-28T03:41:55.671Z,63.60
2018-04-28T03:48:06.443Z,63.60
2018-04-28T03:50:50.827Z,63.60
2018-04-28T03:53:23.694Z,63.90
2018-04-28T03:55:55.200Z,64.60
2018-04-28T04:01:38.071Z,64.00
2018-04-28T04:04:23.911Z,64.20
2018-04-28T04:10:11.336Z,63.40
2018-04-28T04:12:49.090Z,64.10
2018-04-28T04:21:59.261Z,64.50
2018-04-28T04:24:46.786Z,64.20
2018-04-28T04:27:22.350Z,63.90
2018-04-28T04:32:53.146Z,65.00
2018-04-28T04:35:39.880Z,64.50
2018-04-28T04:38:14.564Z,64.50
2018-04-28T04:47:15.390Z,64.70
2018-04-28T04:50:04.208Z,64.80
2018-04-28T04:52:40.903Z,64.70
2018-04-28T04:55:22.506Z,65.70
2018-04-28T04:58:13.825Z,65.40
2018-04-28T05:00:43.615Z,65.70
2018-04-28T05:03:23.491Z,65.70
2018-04-28T05:05:55.215Z,65.40
2018-04-28T05:08:30.665Z,65.80
2018-04-28T05:11:11.678Z,65.60
2018-04-28T05:16:55.323Z,65.90
2018-04-28T05:19:36.190Z,65.80
2018-04-28T05:22:11.843Z,66.50
2018-04-28T05:24:50.783Z,66.60
2018-04-28T05:27:29.499Z,66.80
2018-04-28T05:30:12.168Z,67.40
2018-04-28T05:35:55.378Z,67.60
2018-04-28T05:38:31.943Z,67.80
2018-04-28T05:41:13.292Z,68.20
2018-04-28T05:43:54.987Z,68.20
2018-04-28T05:46:30.618Z,68.10
2018-04-28T05:49:22.078Z,68.10
2018-04-28T05:51:58.902Z,68.10
2018-04-28T05:54:33.430Z,68.10
2018-04-28T06:00:27.660Z,67.70
2018-04-28T06:03:08.620Z,68.00
2018-04-28T06:05:48.325Z,67.80
2018-04-28T06:08:19.888Z,67.70
2018-04-28T06:11:14.681Z,67.90
2018-04-28T06:13:56.446Z,68.20
2018-04-28T06:16:37.328Z,67.80
2018-04-28T06:19:15.384Z,68.70
2018-04-28T06:21:45.103Z,69.60
2018-04-28T06:24:14.802Z,69.90
2018-04-28T06:26:44.587Z,70.10
2018-04-28T06:29:13.962Z,70.10
2018-04-28T06:31:42.958Z,70.00
2018-04-28T06:34:11.961Z,69.80
2018-04-28T06:36:41.056Z,70.00
2018-04-28T06:39:10.071Z,69.80
2018-04-28T06:41:39.112Z,70.80
2018-04-28T06:44:08.776Z,71.70
2018-04-28T06:46:37.787Z,70.40
2018-04-28T06:49:07.582Z,71.80
2018-04-28T06:51:37.272Z,71.70
2018-04-28T06:54:06.938Z,72.00
2018-04-28T06:56:36.683Z,71.80
2018-04-28T06:59:05.687Z,71.20
2018-04-28T07:01:34.691Z,71.80
2018-04-28T07:04:03.690Z,71.10
2018-04-28T07:06:32.833Z,70.40
2018-04-28T07:09:02.499Z,69.60
2018-04-28T07:11:32.297Z,71.30
2018-04-28T07:14:01.283Z,71.30
2018-04-28T07:16:30.282Z,71.20
2018-04-28T07:18:59.962Z,72.30
2018-04-28T07:21:29.282Z,72.40
2018-04-28T07:23:58.298Z,71.10
2018-04-28T07:26:28.404Z,70.00
2018-04-28T07:28:57.423Z,69.90
2018-04-28T07:31:26.787Z,70.20
2018-04-28T07:33:55.795Z,70.40
2018-04-28T07:36:24.809Z,70.40
2018-04-28T07:38:53.827Z,70.00
2018-04-28T07:41:22.819Z,68.70
2018-04-28T07:43:51.908Z,67.90
2018-04-28T07:46:20.929Z,67.30
2018-04-28T07:48:49.954Z,67.80
2018-04-28T07:51:19.489Z,63.50
2018-04-28T07:53:49.149Z,60.30
2018-04-28T07:56:18.466Z,61.00
2018-04-28T07:58:49.010Z,59.60
2018-04-28T08:01:19.136Z,60.80
2018-04-28T08:03:49.060Z,61.20
2018-04-28T08:06:18.779Z,61.20
2018-04-28T08:08:47.915Z,62.00
2018-04-28T08:11:17.734Z,62.10
2018-04-28T08:13:46.752Z,61.90
2018-04-28T08:16:16.875Z,61.60
2018-04-28T08:18:45.866Z,61.50
2018-04-28T08:21:15.655Z,58.80
2018-04-28T08:23:44.654Z,58.70
2018-04-28T08:26:13.678Z,58.90
2018-04-28T08:28:42.692Z,60.20
2018-04-28T08:31:11.691Z,58.60
2018-04-28T08:33:40.718Z,57.80
2018-04-28T08:36:09.814Z,57.90
2018-04-28T08:38:38.844Z,58.30
2018-04-28T08:41:08.375Z,58.20
2018-04-28T08:43:37.855Z,58.20
2018-04-28T08:46:07.522Z,58.40
2018-04-28T08:48:36.684Z,57.50
2018-04-28T08:51:06.381Z,58.60
2018-04-28T08:53:36.351Z,59.00
2018-04-28T08:56:05.692Z,59.00
2018-04-28T08:58:34.718Z,58.60
2018-04-28T09:01:03.727Z,56.70
2018-04-28T09:03:33.418Z,57.60
2018-04-28T09:06:03.089Z,57.00
2018-04-28T09:08:33.556Z,56.20
2018-04-28T09:11:03.227Z,56.10
2018-04-28T09:13:32.936Z,55.30
2018-04-28T09:16:03.374Z,54.70
2018-04-28T09:18:33.159Z,54.70
2018-04-28T09:21:03.599Z,54.10
2018-04-28T09:23:34.075Z,55.50
2018-04-28T09:26:03.753Z,55.40
2018-04-28T09:28:33.446Z,54.30
2018-04-28T09:31:03.895Z,53.50
2018-04-28T09:33:33.571Z,53.50
2018-04-28T09:36:04.027Z,52.40
2018-04-28T09:38:33.706Z,52.30
2018-04-28T09:41:04.154Z,54.30
2018-04-28T09:43:33.908Z,54.30
2018-04-28T09:46:03.624Z,53.90
2018-04-28T09:48:33.291Z,54.60
2018-04-28T09:51:02.987Z,55.00
2018-04-28T09:53:32.673Z,55.10
2018-04-28T09:56:02.372Z,54.20
2018-04-28T09:58:32.114Z,52.20
2018-04-28T10:01:01.229Z,53.00
2018-04-28T10:03:30.702Z,52.20
2018-04-28T10:06:01.141Z,50.20
2018-04-28T10:08:31.792Z,49.80
2018-04-28T10:11:01.459Z,49.70
2018-04-28T10:13:31.915Z,50.00
2018-04-28T10:16:01.586Z,50.00
2018-04-28T10:18:31.286Z,51.40
2018-04-28T10:21:00.959Z,51.70
2018-04-28T10:23:30.657Z,51.70
2018-04-28T10:26:00.391Z,50.90
2018-04-28T10:28:30.078Z,51.80
2018-04-28T10:30:59.745Z,51.20
2018-04-28T10:33:30.214Z,51.00
2018-04-28T10:35:59.907Z,50.90
2018-04-28T10:38:29.621Z,51.80
2018-04-28T10:40:59.379Z,51.80
2018-04-28T10:43:29.067Z,52.70
2018-04-28T10:45:59.567Z,52.30
2018-04-28T10:48:29.243Z,52.20
2018-04-28T10:50:58.934Z,52.80
2018-04-28T10:53:28.611Z,53.60
2018-04-28T10:55:58.303Z,52.20
2018-04-28T10:58:27.983Z,52.50
2018-04-28T11:00:57.679Z,52.30
2018-04-28T11:03:27.357Z,51.90
2018-04-28T11:05:57.039Z,51.20
2018-04-28T11:08:26.724Z,51.40
2018-04-28T11:10:56.415Z,51.40
2018-04-28T11:13:26.137Z,51.50
2018-04-28T11:15:56.187Z,51.30
2018-04-28T11:18:26.718Z,50.10
2018-04-28T11:20:56.609Z,50.70
2018-04-28T11:23:26.583Z,50.80
2018-04-28T11:25:57.464Z,51.00
2018-04-28T11:28:26.947Z,50.90
2018-04-28T11:30:56.630Z,49.50
2018-04-28T11:33:26.332Z,50.60
2018-04-28T11:35:56.015Z,50.70
2018-04-28T11:38:25.749Z,51.00
2018-04-28T11:40:55.464Z,50.20
2018-04-28T11:43:25.524Z,50.30
2018-04-28T11:45:56.724Z,50.00
2018-04-28T11:48:26.418Z,49.80
2018-04-28T11:50:56.094Z,50.20
2018-04-28T11:53:26.541Z,50.10
2018-04-28T11:55:56.207Z,50.00
2018-04-28T11:58:25.895Z,50.10
2018-04-28T12:00:55.571Z,50.70
2018-04-28T12:03:25.258Z,50.20
2018-04-28T12:05:55.694Z,49.50
2018-04-28T12:08:25.422Z,49.50
2018-04-28T12:10:55.129Z,49.50
2018-04-28T12:13:25.763Z,50.00
2018-04-28T12:15:55.431Z,49.90
2018-04-28T12:18:25.888Z,49.50
2018-04-28T12:20:55.650Z,49.40
2018-04-28T12:23:25.456Z,48.50
2018-04-28T12:25:55.134Z,49.30
2018-04-28T12:28:24.818Z,48.80
2018-04-28T12:30:54.499Z,50.60
2018-04-28T12:33:24.186Z,48.60
2018-04-28T12:35:53.880Z,49.30
2018-04-28T12:38:23.759Z,48.00
2018-04-28T12:40:53.443Z,47.20
2018-04-28T12:43:23.136Z,47.80
2018-04-28T12:45:52.802Z,47.30
2018-04-28T12:48:22.494Z,48.50
2018-04-28T12:50:52.193Z,48.60
2018-04-28T12:53:22.074Z,47.80
2018-04-28T12:55:51.743Z,47.80
2018-04-28T12:58:21.443Z,46.60
2018-04-28T13:00:51.135Z,46.50
2018-04-28T13:03:21.579Z,47.70
2018-04-28T13:05:51.270Z,47.50
2018-04-28T13:08:21.708Z,46.50
2018-04-28T13:10:51.395Z,46.50
2018-04-28T13:13:21.835Z,46.90
2018-04-28T13:15:52.295Z,47.10
2018-04-28T13:18:21.971Z,47.10
2018-04-28T13:20:52.432Z,46.50
2018-04-28T13:23:22.108Z,46.50
2018-04-28T13:25:52.562Z,47.30
2018-04-28T13:28:22.243Z,47.20
2018-04-28T13:30:51.936Z,46.30
2018-04-28T13:33:22.368Z,46.70
2018-04-28T13:35:52.823Z,48.10
2018-04-28T13:38:22.508Z,48.00
2018-04-28T13:40:52.963Z,46.30
2018-04-28T13:43:22.643Z,46.30
2018-04-28T13:45:53.098Z,46.70
2018-04-28T13:48:22.774Z,46.70
2018-04-28T13:50:53.227Z,46.50
2018-04-28T13:53:22.903Z,46.30
2018-04-28T13:55:52.597Z,47.60
2018-04-28T13:58:22.255Z,47.20
2018-04-28T14:00:51.952Z,46.60
2018-04-28T14:03:22.379Z,47.10
2018-04-28T14:05:52.081Z,47.00
2018-04-28T14:08:22.514Z,46.80
2018-04-28T14:10:52.203Z,46.80
2018-04-28T14:13:22.645Z,46.90
2018-04-28T14:15:53.982Z,47.80
2018-04-28T14:18:24.423Z,47.50
2018-04-28T14:20:53.890Z,47.50
2018-04-28T14:23:23.554Z,46.40
2018-04-28T14:25:53.241Z,46.60
2018-04-28T14:28:22.920Z,45.50
2018-04-28T14:30:52.623Z,45.60
2018-04-28T14:33:22.300Z,46.20
2018-04-28T14:35:52.015Z,46.20
2018-04-28T14:38:21.687Z,46.80
2018-04-28T14:40:52.138Z,45.50
2018-04-28T14:43:21.827Z,45.50
2018-04-28T14:45:51.507Z,45.80
2018-04-28T14:48:21.195Z,46.40
2018-04-28T14:50:50.871Z,46.00
2018-04-28T14:53:20.571Z,46.00
2018-04-28T14:55:50.272Z,46.80
2018-04-28T14:58:20.728Z,46.90
2018-04-28T15:00:50.167Z,46.80
2018-04-28T15:03:19.856Z,46.10
2018-04-28T15:05:50.300Z,46.50
2018-04-28T15:08:19.966Z,46.40
2018-04-28T15:10:49.304Z,44.60
2018-04-28T15:13:18.995Z,45.90
2018-04-28T15:15:48.671Z,46.20
2018-04-28T15:18:18.529Z,46.40
2018-04-28T15:20:48.987Z,45.80
2018-04-28T15:23:19.439Z,46.10
2018-04-28T15:25:49.127Z,46.10
2018-04-28T15:28:19.620Z,47.40
2018-04-28T15:30:49.455Z,46.80
2018-04-28T15:33:19.144Z,47.10
2018-04-28T15:35:48.822Z,46.80
2018-04-28T15:38:18.531Z,47.30
2018-04-28T15:40:48.195Z,47.30
2018-04-28T15:43:18.655Z,47.00
2018-04-28T15:45:48.324Z,46.90
2018-04-28T15:48:18.012Z,47.20
2018-04-28T15:50:48.095Z,47.40
2018-04-28T15:53:17.808Z,47.00
2018-04-28T15:55:47.474Z,46.50
2018-04-28T15:58:17.945Z,47.30
2018-04-28T16:00:47.615Z,47.30
2018-04-28T16:03:18.102Z,47.10
2018-04-28T16:05:47.768Z,47.00
2018-04-28T16:08:17.459Z,47.40
2018-04-28T16:10:47.195Z,47.00
2018-04-28T16:13:16.539Z,46.30
2018-04-28T16:15:46.227Z,46.20
2018-04-28T16:18:15.904Z,46.80
2018-04-28T16:20:45.595Z,47.00
2018-04-28T16:23:16.031Z,46.30
2018-04-28T16:25:46.487Z,46.70
2018-04-28T16:28:16.155Z,46.60
2018-04-28T16:30:46.619Z,46.70
2018-04-28T16:33:16.304Z,46.70
2018-04-28T16:35:46.772Z,47.20
2018-04-28T16:38:16.447Z,47.20
2018-04-28T16:40:46.912Z,47.50
2018-04-28T16:43:16.578Z,47.50
2018-04-28T16:45:47.271Z,47.30
2018-04-28T16:48:18.460Z,47.70
2018-04-28T16:50:48.207Z,48.10
2018-04-28T16:53:18.054Z,47.30
2018-04-28T16:55:47.824Z,47.30
2018-04-28T16:58:17.522Z,46.90
2018-04-28T17:00:47.197Z,47.40
2018-04-28T17:03:17.642Z,48.40
2018-04-28T17:05:47.315Z,48.30
2018-04-28T17:08:17.011Z,48.60
2018-04-28T17:10:46.707Z,48.40
2018-04-28T17:13:16.405Z,48.30
2018-04-28T17:15:46.154Z,48.30
2018-04-28T17:18:16.123Z,48.80
2018-04-28T17:20:46.932Z,49.00
2018-04-28T17:23:17.385Z,50.40
2018-04-28T17:25:47.064Z,50.40
2018-04-28T17:28:17.535Z,52.50
2018-04-28T17:30:47.218Z,52.50
2018-04-28T17:33:16.919Z,53.10
2018-04-28T17:35:46.600Z,53.50
2018-04-28T17:38:16.299Z,53.80
2018-04-28T17:40:45.986Z,54.10
2018-04-28T17:43:15.659Z,54.20
2018-04-28T17:45:45.125Z,54.40
2018-04-28T17:48:14.790Z,54.50
2018-04-28T17:50:44.495Z,54.70
2018-04-28T17:53:14.312Z,54.90
2018-04-28T17:55:44.319Z,55.20
2018-04-28T17:58:13.994Z,55.80
2018-04-28T18:00:44.545Z,55.70
2018-04-28T18:03:14.427Z,55.70
2018-04-28T18:05:44.168Z,55.80
2018-04-28T18:08:14.650Z,56.20
2018-04-28T18:10:44.330Z,56.10
2018-04-28T18:13:14.019Z,56.40
2018-04-28T18:15:43.693Z,56.30
2018-04-28T18:18:13.391Z,56.70
2018-04-28T18:20:43.855Z,56.40
2018-04-28T18:23:13.556Z,56.40
2018-04-28T18:25:44.202Z,57.50
2018-04-28T18:28:13.902Z,57.40
2018-04-28T18:30:43.574Z,57.60
2018-04-28T18:33:13.379Z,57.30
2018-04-28T18:35:43.043Z,58.00
2018-04-28T18:38:12.736Z,57.90
2018-04-28T18:40:43.171Z,58.60
2018-04-28T18:43:12.869Z,58.60
2018-04-28T18:45:42.518Z,58.20
2018-04-28T18:48:12.219Z,58.40
2018-04-28T18:50:41.883Z,58.40
2018-04-28T18:53:12.751Z,59.70
2018-04-28T18:55:42.451Z,59.70
2018-04-28T18:58:12.153Z,59.30
2018-04-28T19:00:42.594Z,59.80
2018-04-28T19:03:12.291Z,59.80
2018-04-28T19:05:41.729Z,59.90
2018-04-28T19:08:11.419Z,59.30
2018-04-28T19:10:41.107Z,60.00
2018-04-28T19:13:11.536Z,60.70
2018-04-28T19:15:41.656Z,60.70
2018-04-28T19:18:12.095Z,61.50
2018-04-28T19:20:42.535Z,60.40
2018-04-28T19:23:12.254Z,60.40
2018-04-28T19:25:41.963Z,60.20
2018-04-28T19:28:11.635Z,60.10
2018-04-28T19:30:42.091Z,60.10
2018-04-28T19:33:11.779Z,60.10
2018-04-28T19:35:42.455Z,60.10
2018-04-28T19:38:12.115Z,61.10
2018-04-28T19:40:42.335Z,60.90
2018-04-28T19:43:12.763Z,60.90
2018-04-28T19:45:43.230Z,60.90
2018-04-28T19:48:12.926Z,60.90
2018-04-28T19:50:42.594Z,60.80
2018-04-28T19:53:12.281Z,61.00
2018-04-28T19:55:41.735Z,61.50
2018-04-28T19:58:11.411Z,62.00
2018-04-28T20:00:41.069Z,62.10
2018-04-28T20:03:10.541Z,61.70
2018-04-28T20:05:41.005Z,62.10
2018-04-28T20:08:10.690Z,62.10
2018-04-28T20:10:40.346Z,62.20
2018-04-28T20:13:10.038Z,62.10
2018-04-28T20:15:39.691Z,62.00
2018-04-28T20:18:10.143Z,63.10
2018-04-28T20:20:39.803Z,63.10
2018-04-28T20:23:20.671Z,62.70
2018-04-28T20:25:50.335Z,62.30
2018-04-28T20:28:20.025Z,62.20
2018-04-28T20:30:50.446Z,63.30
2018-04-28T20:33:20.887Z,63.80
2018-04-28T20:35:51.313Z,64.30
2018-04-28T20:38:21.979Z,65.00
2018-04-28T20:40:51.675Z,64.90
2018-04-28T20:43:21.366Z,65.00
2018-04-28T20:45:51.818Z,65.10
2018-04-28T20:48:21.466Z,65.10
2018-04-28T20:50:51.169Z,64.70
2018-04-28T20:53:21.082Z,64.80
2018-04-28T20:55:51.654Z,65.10
2018-04-28T20:58:21.521Z,65.10
2018-04-28T21:00:51.380Z,65.80
2018-04-28T21:03:21.110Z,66.60
2018-04-28T21:05:50.796Z,65.40
2018-04-28T21:08:20.470Z,66.00
2018-04-28T21:10:50.171Z,65.40
2018-04-28T21:13:19.863Z,66.20
2018-04-28T21:15:49.540Z,65.80
2018-04-28T21:18:19.207Z,66.10
2018-04-28T21:20:48.891Z,65.90
2018-04-28T21:23:18.555Z,65.90
2018-04-28T21:25:49.006Z,65.40
2018-04-28T21:28:18.673Z,65.30
2018-04-28T21:30:48.355Z,65.40
2018-04-28T21:33:18.038Z,65.20
2018-04-28T21:35:47.731Z,65.20
2018-04-28T21:38:17.419Z,65.40
2018-04-28T21:40:47.842Z,66.20
2018-04-28T21:43:18.294Z,66.80
2018-04-28T21:45:47.954Z,66.60
2018-04-28T21:48:17.644Z,67.10
2018-04-28T21:50:48.355Z,68.50
2018-04-28T21:53:18.032Z,67.70
2018-04-28T21:55:48.481Z,68.20
2018-04-28T21:58:18.165Z,68.10
2018-04-28T22:00:47.839Z,68.90
2018-04-28T22:03:17.518Z,68.40
2018-04-28T22:05:47.184Z,68.70
2018-04-28T22:08:17.651Z,68.70
2018-04-28T22:10:47.320Z,68.70
2018-04-28T22:13:17.111Z,68.50
2018-04-28T22:15:46.794Z,68.20
2018-04-28T22:18:16.457Z,68.20
2018-04-28T22:20:46.903Z,68.60
2018-04-28T22:23:16.563Z,68.60
2018-04-28T22:25:46.267Z,68.70
2018-04-28T22:28:15.950Z,69.20
2018-04-28T22:30:45.634Z,69.30
2018-04-28T22:33:15.305Z,69.40
2018-04-28T22:35:44.651Z,69.40
2018-04-28T22:38:14.314Z,69.70
2018-04-28T22:40:43.990Z,70.00
2018-04-28T22:43:13.663Z,70.00
2018-04-28T22:45:44.103Z,70.10
2018-04-28T22:48:13.462Z,70.10
2018-04-28T22:50:43.170Z,69.90
2018-04-28T22:53:12.830Z,70.20
2018-04-28T22:55:42.511Z,70.30
2018-04-28T22:58:12.967Z,70.60
2018-04-28T23:00:41.961Z,70.60
2018-04-28T23:03:11.838Z,70.60
2018-04-28T23:05:42.263Z,70.80
2018-04-28T23:08:12.712Z,71.00
2018-04-28T23:10:42.583Z,71.00
2018-04-28T23:13:12.268Z,71.00
2018-04-28T23:15:41.929Z,71.20
2018-04-28T23:18:12.383Z,71.60
2018-04-28T23:20:42.047Z,71.50
2018-04-28T23:23:11.732Z,71.30
2018-04-28T23:25:41.390Z,71.50
2018-04-28T23:28:11.071Z,71.20
2018-04-28T23:30:40.730Z,71.10
2018-04-28T23:33:10.411Z,71.10
2018-04-28T23:35:40.839Z,71.80
2018-04-28T23:38:11.085Z,71.60
2018-04-28T23:40:40.738Z,71.60
2018-04-28T23:43:10.418Z,71.70
2018-04-28T23:45:40.118Z,71.50
2018-04-28T23:48:09.776Z,71.20
2018-04-28T23:50:39.451Z,71.10
2018-04-28T23:53:08.887Z,71.10
2018-04-28T23:55:38.567Z,71.30
2018-04-28T23:58:08.234Z,71.10
